Time;durP1;ratioP1;P1;durP2;ratioP2;P2;SDS_P1;SDS_P2;PMS_P1;PMS_P2;Temp;Humidity;BMP_temperature;BMP_pressure;BME280_temperature;BME280_humidity;BME280_pressure;Samples;Min_cycle;Max_cycle;Signal;HPM_P1;HPM_P2
2023/07/25 00:01:29;;;;;;;0.90;0.90;;;;;;;18.48;65.82;100179.47;5064845;27;99325;-84
2023/07/25 00:03:54;;;;;;;2.20;0.80;;;;;;;18.50;65.59;100188.03;5053187;27;97466;-84
2023/07/25 00:06:19;;;;;;;1.67;1.00;;;;;;;18.46;65.56;100173.72;5051168;27;97541;-84
2023/07/25 00:08:45;;;;;;;1.53;1.40;;;;;;;18.41;65.58;100177.41;5050542;27;100197;-84
2023/07/25 00:11:14;;;;;;;3.60;1.33;;;;;;;18.41;65.58;100177.41;5069023;27;97460;-84
2023/07/25 00:13:39;;;;;;;1.63;1.03;;;;;;;18.36;65.55;100190.22;5069431;27;97354;-84
2023/07/25 00:16:04;;;;;;;1.10;1.00;;;;;;;18.34;65.44;100200.44;5055421;27;97238;-84
2023/07/25 00:18:30;;;;;;;4.00;1.30;;;;;;;18.31;65.59;100188.38;5068525;27;97893;-84
2023/07/25 00:20:55;;;;;;;1.03;0.90;;;;;;;18.29;65.59;100241.09;5068729;27;97669;-84
2023/07/25 00:23:21;;;;;;;3.47;1.07;;;;;;;18.31;65.54;100204.34;5068548;27;97045;-83
2023/07/25 00:25:46;;;;;;;1.40;1.30;;;;;;;18.25;65.45;100201.00;5069405;27;96825;-83
2023/07/25 00:28:11;;;;;;;1.60;1.17;;;;;;;18.23;65.54;100240.53;5068426;27;97596;-84
2023/07/25 00:30:39;;;;;;;1.30;1.13;;;;;;;18.28;65.72;100199.91;5069355;27;97093;-83
2023/07/25 00:33:04;;;;;;;2.03;1.00;;;;;;;18.29;65.45;100212.50;5069923;27;97313;-84
2023/07/25 00:35:29;;;;;;;1.77;0.83;;;;;;;18.26;65.39;100208.06;5070835;27;97210;-82
2023/07/25 00:37:55;;;;;;;2.23;1.37;;;;;;;18.29;65.61;100229.22;5054070;27;99167;-83
2023/07/25 00:40:20;;;;;;;1.87;1.27;;;;;;;18.27;65.61;100199.16;5069523;27;96715;-83
2023/07/25 00:42:45;;;;;;;8.23;0.93;;;;;;;18.25;65.66;100203.78;5053276;27;97575;-83
2023/07/25 00:45:10;;;;;;;4.33;1.50;;;;;;;18.25;65.78;100203.78;5051770;27;97193;-83
2023/07/25 00:47:36;;;;;;;4.37;1.20;;;;;;;18.18;65.78;100246.28;5051071;27;105249;-84
2023/07/25 00:50:02;;;;;;;1.20;1.10;;;;;;;18.24;65.63;100208.59;5070878;27;97779;-81
2023/07/25 00:52:27;;;;;;;2.70;1.17;;;;;;;18.22;65.66;100182.59;5052227;27;97018;-83
2023/07/25 00:54:52;;;;;;;1.97;1.30;;;;;;;18.24;65.67;100205.09;5070820;27;97201;-84
2023/07/25 00:57:19;;;;;;;1.63;1.40;;;;;;;18.24;65.46;100203.03;5069912;27;97476;-83
2023/07/25 00:59:45;;;;;;;5.70;1.07;;;;;;;18.25;65.74;100214.91;5049674;27;100440;-83
2023/07/25 01:02:12;;;;;;;2.37;1.13;;;;;;;18.23;65.67;100201.56;5050285;27;97080;-83
2023/07/25 01:04:38;;;;;;;5.97;1.40;;;;;;;18.24;65.70;100194.69;5066053;27;97152;-84
2023/07/25 01:07:08;;;;;;;1.27;1.17;;;;;;;18.27;65.88;100203.97;5051449;27;99714;-85
2023/07/25 01:09:46;;;;;;;3.50;1.03;;;;;;;18.28;65.73;100205.47;5065348;27;99303;-84
2023/07/25 01:12:12;;;;;;;1.60;1.37;;;;;;;18.25;65.80;100201.00;5066558;27;96794;-83
2023/07/25 01:14:39;;;;;;;1.03;0.90;;;;;;;18.26;65.70;100202.50;5066016;27;97039;-83
2023/07/25 01:17:09;;;;;;;1.53;1.03;;;;;;;18.27;65.98;100226.25;5066249;27;100180;-85
2023/07/25 01:19:37;;;;;;;2.60;1.30;;;;;;;18.27;65.74;100209.53;5064605;27;99023;-83
2023/07/25 01:22:03;;;;;;;1.30;1.20;;;;;;;18.29;65.75;100218.06;5070645;27;97146;-81
2023/07/25 01:24:28;;;;;;;1.30;1.13;;;;;;;18.29;65.68;100215.28;5070960;27;97223;-82
2023/07/25 01:26:55;;;;;;;2.10;1.40;;;;;;;18.28;65.85;100224.97;5055890;27;99378;-82
2023/07/25 01:29:20;;;;;;;1.63;1.53;;;;;;;18.30;65.69;100225.13;5070550;27;99983;-82
2023/07/25 01:31:46;;;;;;;4.30;1.77;;;;;;;18.25;65.72;100214.91;5052000;27;97222;-82
2023/07/25 01:34:11;;;;;;;1.00;0.90;;;;;;;18.29;65.65;100212.50;5052916;27;97031;-81
2023/07/25 01:36:36;;;;;;;3.73;1.30;;;;;;;18.24;65.64;100208.59;5071820;27;103943;-81
2023/07/25 01:39:01;;;;;;;2.20;1.30;;;;;;;18.27;65.75;100220.66;5071890;27;97354;-82
2023/07/25 01:41:27;;;;;;;3.73;1.40;;;;;;;18.25;65.76;100226.06;5072096;27;97033;-82
2023/07/25 01:43:52;;;;;;;1.87;1.30;;;;;;;18.23;65.85;100217.53;5053165;27;97502;-82
2023/07/25 01:46:17;;;;;;;1.57;1.47;;;;;;;18.27;65.83;100226.25;5071361;27;97132;-83
2023/07/25 01:48:43;;;;;;;1.67;1.23;;;;;;;18.26;65.79;100217.13;5058950;27;100661;-82
2023/07/25 01:51:08;;;;;;;1.60;1.50;;;;;;;18.23;65.79;100215.47;5068760;27;97433;-82
2023/07/25 01:53:34;;;;;;;1.30;1.20;;;;;;;18.25;65.96;100235.16;5070824;27;97451;-82
2023/07/25 01:55:59;;;;;;;1.73;1.30;;;;;;;18.24;65.91;100227.38;5052801;27;99432;-83
2023/07/25 01:58:24;;;;;;;1.33;1.20;;;;;;;18.20;65.95;100226.97;5054086;27;100431;-83
2023/07/25 02:00:56;;;;;;;1.30;1.20;;;;;;;18.23;65.93;100242.56;5073681;27;97150;-82
2023/07/25 02:03:22;;;;;;;3.17;1.60;;;;;;;18.25;65.90;100248.34;5070810;27;97235;-82
2023/07/25 02:05:47;;;;;;;1.30;1.20;;;;;;;18.22;65.94;100247.41;5047774;27;105069;-82
2023/07/25 02:08:13;;;;;;;1.50;1.40;;;;;;;18.26;65.91;100235.91;5052318;27;99003;-82
2023/07/25 02:10:38;;;;;;;2.97;1.50;;;;;;;18.15;65.88;100275.97;5053348;27;97151;-82
2023/07/25 02:13:04;;;;;;;1.83;1.70;;;;;;;18.19;65.91;100231.81;5052867;27;96969;-82
2023/07/25 02:15:29;;;;;;;2.87;1.47;;;;;;;18.21;66.01;100248.72;5052028;27;98936;-82
2023/07/25 02:17:54;;;;;;;2.47;1.20;;;;;;;18.19;65.98;100245.00;5051802;27;103424;-82
2023/07/25 02:20:22;;;;;;;4.80;1.70;;;;;;;18.23;66.13;100237.75;5070145;27;97308;-82
2023/07/25 02:22:47;;;;;;;1.80;1.47;;;;;;;18.21;66.07;100247.97;5071556;27;97281;-82
2023/07/25 02:25:12;;;;;;;2.20;1.60;;;;;;;18.25;66.07;100237.19;5050748;27;99197;-84
2023/07/25 02:27:38;;;;;;;2.40;2.00;;;;;;;18.25;66.10;100239.97;5052729;27;98952;-84
2023/07/25 02:30:03;;;;;;;1.40;1.30;;;;;;;18.25;66.10;100290.84;5052477;27;97355;-82
2023/07/25 02:32:29;;;;;;;1.87;1.70;;;;;;;18.28;65.95;100239.59;5053678;27;97263;-82
2023/07/25 02:34:54;;;;;;;1.40;1.30;;;;;;;18.17;66.02;100247.59;5052670;27;100711;-83
2023/07/25 02:37:19;;;;;;;6.50;1.80;;;;;;;18.24;66.01;100238.50;5068496;27;100253;-82
2023/07/25 02:39:45;;;;;;;1.10;1.00;;;;;;;18.26;66.08;100258.19;5053466;27;97306;-82
2023/07/25 02:42:10;;;;;;;2.33;1.60;;;;;;;18.24;65.91;100249.66;5069723;27;97190;-82
2023/07/25 02:44:35;;;;;;;1.40;1.30;;;;;;;18.19;65.99;100251.31;5068595;27;102040;-82
2023/07/25 02:47:01;;;;;;;1.93;1.50;;;;;;;18.18;66.04;100249.81;5072106;27;98985;-81
2023/07/25 02:49:27;;;;;;;2.00;1.67;;;;;;;18.16;65.81;100254.44;5044994;27;97629;-81
2023/07/25 02:51:52;;;;;;;2.37;1.90;;;;;;;18.14;65.83;100274.50;5071513;27;96937;-82
2023/07/25 02:54:17;;;;;;;2.60;1.90;;;;;;;18.12;66.03;100245.72;5070088;27;96958;-82
2023/07/25 02:56:43;;;;;;;1.97;1.50;;;;;;;18.14;65.85;100240.34;5058547;27;100093;-82
2023/07/25 02:59:08;;;;;;;4.70;1.77;;;;;;;18.10;65.95;100237.19;5054140;27;97626;-83
2023/07/25 03:01:34;;;;;;;7.13;1.83;;;;;;;18.09;66.12;100238.47;5055569;27;97481;-83
2023/07/25 03:03:59;;;;;;;1.50;1.40;;;;;;;18.08;66.04;100251.66;5069854;27;97267;-81
2023/07/25 03:06:24;;;;;;;1.73;1.63;;;;;;;18.05;65.94;100243.66;5050183;27;100052;-82
2023/07/25 03:08:49;;;;;;;1.87;1.77;;;;;;;18.02;66.04;100244.78;5054103;27;97305;-80
2023/07/25 03:11:15;;;;;;;1.97;1.50;;;;;;;17.98;66.01;100231.22;5071340;27;97157;-81
2023/07/25 03:13:40;;;;;;;1.43;1.33;;;;;;;17.93;66.04;100238.44;5070166;27;107653;-81
2023/07/25 03:16:05;;;;;;;5.57;1.63;;;;;;;17.95;65.93;100246.97;5052706;27;98885;-82
2023/07/25 03:18:31;;;;;;;2.83;1.70;;;;;;;17.92;66.13;100234.19;5070534;27;97334;-80
2023/07/25 03:20:56;;;;;;;6.40;2.13;;;;;;;17.92;66.26;100230.66;5052362;27;97616;-82
2023/07/25 03:23:21;;;;;;;2.20;2.00;;;;;;;17.90;66.36;100236.78;5070352;27;97720;-82
2023/07/25 03:25:47;;;;;;;3.17;1.60;;;;;;;17.84;66.14;100218.75;5069965;27;97199;-82
2023/07/25 03:28:12;;;;;;;1.63;1.53;;;;;;;17.90;66.03;100236.03;5055427;27;97837;-82
2023/07/25 03:30:37;;;;;;;1.60;1.50;;;;;;;17.86;66.14;100216.91;5056116;27;97280;-81
2023/07/25 03:33:03;;;;;;;3.50;1.70;;;;;;;17.87;66.08;100223.97;5068062;27;100395;-82
2023/07/25 03:35:28;;;;;;;1.80;1.70;;;;;;;17.83;65.91;100212.44;5068357;27;100102;-82
2023/07/25 03:37:53;;;;;;;3.70;1.67;;;;;;;17.86;66.03;100227.31;5054718;27;97074;-82
2023/07/25 03:40:19;;;;;;;1.97;1.87;;;;;;;17.79;66.05;100219.66;5075253;27;97016;-83
2023/07/25 03:42:44;;;;;;;2.40;1.30;;;;;;;17.79;65.98;100228.78;5074824;27;99143;-81
2023/07/25 03:45:10;;;;;;;2.53;1.60;;;;;;;17.77;66.02;100220.22;5057856;27;99205;-82
2023/07/25 03:47:35;;;;;;;2.47;1.70;;;;;;;17.76;65.99;100241.00;5071968;27;100469;-83
2023/07/25 03:50:00;;;;;;;5.83;1.97;;;;;;;17.74;66.05;100221.31;5036192;27;100825;-84
2023/07/25 03:52:27;;;;;;;1.70;1.60;;;;;;;17.72;66.09;100235.06;5057904;27;100891;-83
2023/07/25 03:54:52;;;;;;;3.07;2.10;;;;;;;17.70;66.01;100222.97;5040535;27;99431;-82
2023/07/25 03:57:17;;;;;;;2.00;1.50;;;;;;;17.69;66.17;100240.97;5036388;27;97419;-82
2023/07/25 03:59:43;;;;;;;1.90;1.80;;;;;;;17.68;65.92;100225.56;5050726;27;101448;-82
2023/07/25 04:02:09;;;;;;;1.97;1.83;;;;;;;17.66;65.91;100247.63;5070175;27;100806;-83
2023/07/25 04:04:34;;;;;;;1.83;1.57;;;;;;;17.62;66.04;100225.75;5055258;27;100272;-82
2023/07/25 04:06:59;;;;;;;1.70;1.60;;;;;;;17.59;65.97;100268.56;5053974;27;97601;-82
2023/07/25 04:09:25;;;;;;;1.67;1.57;;;;;;;17.62;65.84;100228.53;5066378;27;96727;-82
2023/07/25 04:11:50;;;;;;;3.33;2.00;;;;;;;17.63;66.07;100243.16;5071276;27;97878;-83
2023/07/25 04:14:15;;;;;;;3.07;1.70;;;;;;;17.65;66.05;100244.09;5069591;27;97365;-83
2023/07/25 04:16:41;;;;;;;2.40;2.00;;;;;;;17.65;65.98;100241.31;5050001;27;96956;-82
2023/07/25 04:19:06;;;;;;;1.80;1.70;;;;;;;17.64;66.03;100245.41;5069649;27;97302;-82
2023/07/25 04:21:31;;;;;;;1.67;1.53;;;;;;;17.66;66.07;100248.38;5053422;27;100155;-83
2023/07/25 04:23:57;;;;;;;1.97;1.67;;;;;;;17.64;66.05;100239.09;5069309;27;99621;-82
2023/07/25 04:26:22;;;;;;;4.60;2.20;;;;;;;17.59;66.11;100226.84;5050453;27;97151;-82
2023/07/25 04:28:48;;;;;;;3.90;2.20;;;;;;;17.60;66.00;100228.34;5057040;27;96538;-84
2023/07/25 04:31:14;;;;;;;3.30;2.27;;;;;;;17.59;66.14;100253.91;5070790;27;100889;-82
2023/07/25 04:33:39;;;;;;;4.57;2.57;;;;;;;17.68;66.32;100259.72;5056274;27;100354;-83
2023/07/25 04:36:06;;;;;;;3.00;2.20;;;;;;;17.66;66.22;100297.72;5050956;27;97609;-82
2023/07/25 04:38:31;;;;;;;3.57;1.97;;;;;;;17.69;66.11;100286.22;5072171;27;96993;-82
2023/07/25 04:40:56;;;;;;;4.27;2.33;;;;;;;17.75;66.30;100253.44;5052107;27;100342;-82
2023/07/25 04:43:22;;;;;;;4.13;2.20;;;;;;;17.79;66.19;100256.59;5072053;27;97425;-80
2023/07/25 04:45:47;;;;;;;1.90;1.70;;;;;;;17.79;66.02;100256.59;5051589;27;96927;-82
2023/07/25 04:48:13;;;;;;;1.67;1.53;;;;;;;17.80;66.09;100260.13;5051615;27;97132;-82
2023/07/25 04:50:38;;;;;;;6.77;2.20;;;;;;;17.79;65.98;100248.25;5071672;27;97329;-82
2023/07/25 04:53:03;;;;;;;3.67;2.40;;;;;;;17.77;65.94;100238.97;5052505;27;99786;-82
2023/07/25 04:55:29;;;;;;;4.53;2.43;;;;;;;17.77;66.02;100269.56;5051144;27;97094;-81
2023/07/25 04:57:54;;;;;;;5.07;2.30;;;;;;;17.76;66.01;100251.38;5052926;27;97320;-82
2023/07/25 05:00:19;;;;;;;7.10;2.43;;;;;;;17.78;66.19;100243.97;5052053;27;99045;-82
2023/07/25 05:02:45;;;;;;;3.20;2.13;;;;;;;17.79;66.16;100247.50;5052121;27;99393;-82
2023/07/25 05:05:10;;;;;;;2.40;2.17;;;;;;;17.78;66.26;100238.41;5053436;27;97522;-82
2023/07/25 05:07:35;;;;;;;4.90;2.20;;;;;;;17.79;66.07;100289.25;5070973;27;97359;-83
2023/07/25 05:10:01;;;;;;;2.90;2.53;;;;;;;17.84;65.91;100238.25;5071104;27;97953;-80
2023/07/25 05:12:26;;;;;;;4.97;2.03;;;;;;;17.83;66.04;100281.28;5051213;27;98929;-82
2023/07/25 05:14:51;;;;;;;4.53;2.60;;;;;;;17.85;65.98;100239.72;5051395;27;97888;-81
2023/07/25 05:17:17;;;;;;;3.17;2.50;;;;;;;17.87;66.11;100251.03;5072015;27;97217;-82
2023/07/25 05:19:42;;;;;;;2.07;1.97;;;;;;;17.85;65.93;100246.03;5069543;27;98025;-82
2023/07/25 05:22:08;;;;;;;3.77;2.27;;;;;;;17.89;66.02;100246.41;5070337;27;97759;-82
2023/07/25 05:24:33;;;;;;;2.13;2.00;;;;;;;17.84;65.97;100261.22;5051599;27;97701;-84
2023/07/25 05:26:58;;;;;;;10.23;2.27;;;;;;;17.92;65.91;100253.66;5067878;27;97399;-83
2023/07/25 05:29:24;;;;;;;2.50;2.07;;;;;;;17.81;66.01;100233.78;5067307;27;96930;-82
2023/07/25 05:31:49;;;;;;;3.20;2.40;;;;;;;17.90;65.91;100249.94;5070247;27;96989;-83
2023/07/25 05:34:14;;;;;;;3.00;2.60;;;;;;;17.91;65.78;100245.84;5052616;27;97540;-82
2023/07/25 05:36:39;;;;;;;3.67;2.67;;;;;;;17.90;65.84;100252.72;5049550;27;97147;-81
2023/07/25 05:39:05;;;;;;;2.70;1.87;;;;;;;17.92;65.99;100247.34;5052177;27;100584;-83
2023/07/25 05:41:30;;;;;;;2.60;1.97;;;;;;;17.95;65.88;100260.91;5050804;27;99358;-83
2023/07/25 05:43:55;;;;;;;2.87;2.47;;;;;;;18.01;65.87;100241.25;5070002;27;97065;-83
2023/07/25 05:46:21;;;;;;;3.50;2.43;;;;;;;17.96;65.79;100234.56;5056767;27;97391;-81
2023/07/25 05:48:46;;;;;;;4.20;2.03;;;;;;;18.00;65.88;100266.88;5068566;27;97051;-82
2023/07/25 05:51:12;;;;;;;2.80;2.30;;;;;;;18.07;65.61;100238.28;5068595;27;100114;-82
2023/07/25 05:53:37;;;;;;;3.70;2.20;;;;;;;18.11;65.91;100252.59;5050510;27;96738;-82
2023/07/25 05:56:02;;;;;;;10.57;2.93;;;;;;;18.09;65.77;100238.47;5070342;27;97065;-82
2023/07/25 05:58:28;;;;;;;2.70;2.47;;;;;;;18.14;65.68;100226.41;5068597;27;100628;-82
2023/07/25 06:00:54;;;;;;;3.90;2.23;;;;;;;18.14;65.94;100240.34;5050827;27;100319;-84
2023/07/25 06:03:19;;;;;;;8.17;3.47;;;;;;;18.18;65.89;100269.31;5068433;27;97238;-82
2023/07/25 06:05:44;;;;;;;2.60;2.27;;;;;;;18.11;65.75;100272.09;5053240;27;103919;-81
2023/07/25 06:08:10;;;;;;;3.57;2.20;;;;;;;18.23;65.59;100239.78;5069485;27;98308;-83
2023/07/25 06:10:36;;;;;;;4.97;2.27;;;;;;;18.27;65.50;100237.38;5050374;27;100007;-83
2023/07/25 06:13:06;;;;;;;5.30;2.00;;;;;;;18.28;65.61;100281.38;5050966;27;97546;-82
2023/07/25 06:15:34;;;;;;;2.53;2.33;;;;;;;18.32;65.48;100220.50;5069115;27;96989;-82
2023/07/25 06:18:00;;;;;;;2.63;2.30;;;;;;;18.35;65.37;100238.13;5066889;27;99978;-83
2023/07/25 06:20:26;;;;;;;5.60;2.60;;;;;;;18.34;65.36;100223.47;5065871;27;99441;-83
2023/07/25 06:22:51;;;;;;;5.53;2.23;;;;;;;18.38;65.49;100239.81;5068522;27;96481;-83
2023/07/25 06:25:16;;;;;;;3.90;2.53;;;;;;;18.41;65.50;100239.41;5051404;27;97509;-82
2023/07/25 06:27:42;;;;;;;3.50;2.07;;;;;;;18.45;65.38;100250.25;5048777;27;99359;-82
2023/07/25 06:30:07;;;;;;;3.83;2.30;;;;;;;18.51;65.35;100251.53;5068643;27;97576;-83
2023/07/25 06:32:34;;;;;;;2.30;2.10;;;;;;;18.57;65.29;100257.66;5069318;27;96829;-83
2023/07/25 06:34:59;;;;;;;5.67;2.03;;;;;;;18.58;65.28;100306.53;5047535;27;96972;-82
2023/07/25 06:37:25;;;;;;;7.40;1.80;;;;;;;18.65;65.28;100254.88;5066654;27;96861;-82
2023/07/25 06:39:50;;;;;;;2.37;1.80;;;;;;;18.67;64.95;100272.50;5068089;27;97669;-81
2023/07/25 06:42:15;;;;;;;1.80;1.70;;;;;;;18.78;65.13;100285.34;5048875;27;97068;-81
2023/07/25 06:44:41;;;;;;;3.40;2.10;;;;;;;18.87;65.09;100284.75;5067400;27;96652;-82
2023/07/25 06:47:06;;;;;;;4.40;2.00;;;;;;;18.91;65.00;100282.38;5067097;27;98233;-82
2023/07/25 06:49:31;;;;;;;3.30;2.07;;;;;;;18.96;64.83;100303.00;5068113;27;97925;-82
2023/07/25 06:51:57;;;;;;;2.90;1.90;;;;;;;19.02;64.81;100300.75;5053140;27;97159;-82
2023/07/25 06:54:22;;;;;;;2.97;2.67;;;;;;;19.06;64.84;100310.22;5050959;27;97586;-82
2023/07/25 06:56:48;;;;;;;7.63;2.53;;;;;;;19.09;64.73;100314.66;5065541;27;97204;-82
2023/07/25 06:59:13;;;;;;;4.60;2.27;;;;;;;19.09;64.66;100308.38;5066694;27;97700;-82
2023/07/25 07:01:39;;;;;;;5.50;2.53;;;;;;;19.06;64.34;100313.00;5048171;27;97129;-82
2023/07/25 07:04:05;;;;;;;2.37;1.87;;;;;;;19.10;64.13;100310.59;5049186;27;97331;-81
2023/07/25 07:06:30;;;;;;;2.80;2.10;;;;;;;19.17;64.44;100309.09;5049494;27;99082;-82
2023/07/25 07:08:55;;;;;;;3.77;2.60;;;;;;;19.33;64.48;100339.19;5048836;27;99288;-82
2023/07/25 07:11:21;;;;;;;4.50;2.20;;;;;;;19.43;64.41;100331.75;5067230;27;97417;-82
2023/07/25 07:13:46;;;;;;;4.60;2.30;;;;;;;19.44;64.01;100315.75;5065927;27;97269;-83
2023/07/25 07:16:11;;;;;;;4.10;2.10;;;;;;;19.44;63.99;100322.06;5048448;27;102052;-82
2023/07/25 07:18:37;;;;;;;3.57;1.97;;;;;;;19.51;64.11;100309.41;5052507;27;99111;-84
2023/07/25 07:21:02;;;;;;;2.47;1.73;;;;;;;19.52;63.89;100315.72;5067395;27;97425;-81
2023/07/25 07:23:27;;;;;;;4.33;1.97;;;;;;;19.55;63.84;100315.34;5069115;27;97123;-83
2023/07/25 07:25:53;;;;;;;4.00;2.70;;;;;;;19.59;63.88;100317.75;5069262;27;97289;-82
2023/07/25 07:28:18;;;;;;;3.27;1.37;;;;;;;19.54;63.92;100319.44;5054132;27;98940;-81
2023/07/25 07:30:51;;;;;;;3.63;1.77;;;;;;;19.51;63.79;100325.41;5066908;27;97253;-82
2023/07/25 07:33:19;;;;;;;2.60;1.70;;;;;;;19.49;63.91;100302.91;5046690;27;97655;-81
2023/07/25 07:35:45;;;;;;;3.30;1.80;;;;;;;19.43;64.26;100309.44;5064718;27;99306;-81
2023/07/25 07:38:11;;;;;;;3.70;1.80;;;;;;;19.50;64.36;100307.19;5062358;27;99235;-82
2023/07/25 07:40:36;;;;;;;2.87;1.93;;;;;;;19.53;64.51;100295.63;5065942;27;100933;-83
2023/07/25 07:43:02;;;;;;;3.63;1.60;;;;;;;19.57;64.52;100298.06;5047959;27;98635;-83
2023/07/25 07:45:29;;;;;;;7.20;1.90;;;;;;;19.62;64.69;100291.50;5066662;27;97981;-79
2023/07/25 07:47:55;;;;;;;4.30;2.00;;;;;;;19.77;64.61;100297.03;5065024;27;97879;-82
2023/07/25 07:50:20;;;;;;;4.80;2.10;;;;;;;19.86;64.14;100285.25;5047527;27;97517;-85
2023/07/25 07:52:46;;;;;;;3.90;1.87;;;;;;;19.88;63.81;100294.56;5066684;27;97511;-83
2023/07/25 07:55:12;;;;;;;4.03;1.60;;;;;;;19.87;63.49;100295.13;5067253;27;98088;-84
2023/07/25 07:57:42;;;;;;;2.90;1.77;;;;;;;19.78;63.65;100310.44;5064086;27;101879;-82
2023/07/25 08:00:08;;;;;;;5.03;1.70;;;;;;;19.68;63.66;100319.97;5065066;27;97063;-84
2023/07/25 08:02:34;;;;;;;2.93;1.80;;;;;;;19.60;63.63;100294.13;5064878;27;97609;-82
2023/07/25 08:04:59;;;;;;;2.40;1.80;;;;;;;19.52;63.77;100302.53;5046492;27;99186;-81
2023/07/25 08:07:24;;;;;;;2.40;1.30;;;;;;;19.51;63.89;100287.06;5051702;27;110081;-85
2023/07/25 08:09:54;;;;;;;4.93;2.03;;;;;;;19.57;63.98;100282.03;5045876;27;97105;-83
2023/07/25 08:12:19;;;;;;;2.37;1.70;;;;;;;19.65;63.80;100287.59;5045913;27;97429;-82
2023/07/25 08:14:44;;;;;;;2.13;1.53;;;;;;;19.66;63.28;100269.56;5047353;27;100459;-82
2023/07/25 08:17:10;;;;;;;1.70;1.60;;;;;;;19.90;63.12;100277.22;5049363;27;99998;-83
2023/07/25 08:19:35;;;;;;;1.53;1.40;;;;;;;20.04;62.60;100267.28;5065633;27;96904;-84
2023/07/25 08:22:00;;;;;;;2.10;1.63;;;;;;;20.17;62.63;100264.97;5046715;27;97008;-81
2023/07/25 08:24:26;;;;;;;1.60;1.50;;;;;;;20.25;62.34;100258.63;5048997;27;100522;-81
2023/07/25 08:26:51;;;;;;;3.20;1.20;;;;;;;20.18;61.90;100274.13;5055232;27;101405;-85
2023/07/25 08:29:16;;;;;;;1.73;1.47;;;;;;;20.08;61.87;100279.56;5068170;27;97070;-82
2023/07/25 08:31:42;;;;;;;2.73;1.27;;;;;;;20.01;62.13;100283.13;5069939;27;97885;-83
2023/07/25 08:34:07;;;;;;;2.27;1.23;;;;;;;19.93;62.37;100301.22;5049672;27;99786;-83
2023/07/25 08:36:32;;;;;;;4.13;1.30;;;;;;;19.95;62.58;100273.50;5052077;27;99188;-81
2023/07/25 08:38:58;;;;;;;1.63;1.17;;;;;;;20.05;61.93;100285.56;5069321;27;97084;-84
2023/07/25 08:41:30;;;;;;;2.13;1.37;;;;;;;20.17;61.11;100278.19;5069683;27;97205;-82
2023/07/25 08:44:01;;;;;;;1.40;1.00;;;;;;;20.29;60.84;100276.47;5068290;27;96736;-82
2023/07/25 08:46:27;;;;;;;3.43;0.90;;;;;;;20.38;60.73;100264.66;5048553;27;99088;-84
2023/07/25 08:48:59;;;;;;;1.10;1.00;;;;;;;20.42;60.02;100261.50;5066216;27;97100;-82
2023/07/25 08:51:27;;;;;;;1.70;1.13;;;;;;;20.50;59.79;100254.53;5069123;27;97746;-84
2023/07/25 08:54:32;;;;;;;1.37;1.00;;;;;;;20.63;58.37;100257.03;5065552;27;100041;-83
2023/07/25 08:56:58;;;;;;;1.93;0.90;;;;;;;20.82;59.48;100257.22;4946356;28;98973;-82
2023/07/25 08:59:25;;;;;;;1.63;1.23;;;;;;;21.00;59.27;100265.63;5050471;27;98197;-81
2023/07/25 09:01:52;;;;;;;2.87;1.43;;;;;;;20.97;58.43;100280.78;5050771;27;99938;-82
2023/07/25 09:04:19;;;;;;;1.90;1.10;;;;;;;20.83;58.59;100275.50;5048547;27;99246;-81
2023/07/25 09:06:45;;;;;;;1.47;1.20;;;;;;;20.70;58.84;100273.00;5067657;27;99204;-83
2023/07/25 09:09:11;;;;;;;3.63;1.30;;;;;;;20.76;59.38;100270.72;5067673;27;97007;-82
2023/07/25 09:11:36;;;;;;;1.80;1.00;;;;;;;20.95;59.18;100269.44;5069722;27;100027;-83
2023/07/25 09:14:02;;;;;;;1.97;1.03;;;;;;;21.14;58.23;100264.78;5048073;27;102330;-81
2023/07/25 09:16:27;;;;;;;1.80;1.07;;;;;;;21.34;58.23;100260.09;5066512;27;97537;-82
2023/07/25 09:18:53;;;;;;;1.20;1.03;;;;;;;21.50;57.77;100253.72;5048937;27;97159;-83
2023/07/25 09:21:18;;;;;;;1.20;1.10;;;;;;;21.68;57.44;100265.63;5047102;27;96923;-82
2023/07/25 09:23:55;;;;;;;1.67;1.00;;;;;;;21.65;55.90;100255.59;5068493;27;97248;-82
2023/07/25 09:26:23;;;;;;;3.37;0.90;;;;;;;21.57;56.89;100255.69;5064539;27;99997;-83
2023/07/25 09:28:50;;;;;;;3.00;1.53;;;;;;;21.43;57.07;100256.59;5047096;27;97196;-82
2023/07/25 09:31:16;;;;;;;2.40;0.83;;;;;;;21.36;57.32;100274.25;5068158;27;97029;-84
2023/07/25 09:33:41;;;;;;;1.67;0.90;;;;;;;21.25;57.48;100280.34;5050773;27;99557;-84
2023/07/25 09:36:07;;;;;;;2.00;1.10;;;;;;;21.33;58.07;100275.38;5064148;27;97482;-83
2023/07/25 09:38:33;;;;;;;1.77;1.00;;;;;;;21.52;57.35;100261.53;5067409;27;97516;-82
2023/07/25 09:41:01;;;;;;;1.80;1.00;;;;;;;21.74;56.44;100262.56;5067782;27;96822;-82
2023/07/25 09:43:28;;;;;;;1.93;1.00;;;;;;;21.80;55.81;100272.19;5068306;27;98280;-84
2023/07/25 09:45:55;;;;;;;1.30;1.20;;;;;;;21.78;55.75;100265.69;5067271;27;97951;-82
2023/07/25 09:48:21;;;;;;;0.70;0.60;;;;;;;21.95;54.92;100260.09;5064903;27;97186;-82
2023/07/25 09:50:47;;;;;;;1.13;1.03;;;;;;;22.16;54.65;100258.28;5048583;27;96967;-82
2023/07/25 09:53:14;;;;;;;2.10;0.93;;;;;;;22.39;54.41;100250.25;5066868;27;97118;-82
2023/07/25 09:55:41;;;;;;;1.17;0.93;;;;;;;22.71;53.66;100259.69;5048768;27;100974;-81
2023/07/25 09:58:06;;;;;;;1.60;0.80;;;;;;;22.95;53.16;100281.13;5063823;27;98481;-83
2023/07/25 10:00:32;;;;;;;0.97;0.83;;;;;;;22.81;52.85;100269.59;5046883;27;96909;-83
2023/07/25 10:02:58;;;;;;;1.37;1.13;;;;;;;22.61;53.25;100278.53;5065002;27;98014;-83
2023/07/25 10:05:26;;;;;;;1.60;1.20;;;;;;;22.42;53.28;100267.97;5048545;27;100200;-82
2023/07/25 10:07:53;;;;;;;1.63;1.00;;;;;;;22.25;54.31;100270.84;5065448;27;96888;-83
2023/07/25 10:10:18;;;;;;;3.40;1.00;;;;;;;22.14;54.43;100266.53;5047673;27;97282;-82
2023/07/25 10:12:44;;;;;;;2.40;0.80;;;;;;;22.09;54.46;100303.22;5066815;27;98099;-83
2023/07/25 10:15:10;;;;;;;1.40;1.20;;;;;;;22.08;54.52;100282.84;5049964;27;106444;-82
2023/07/25 10:17:35;;;;;;;2.90;1.00;;;;;;;22.15;54.84;100267.25;5068068;27;97044;-83
2023/07/25 10:20:05;;;;;;;1.10;0.80;;;;;;;22.30;54.06;100272.66;5048676;27;97097;-82
2023/07/25 10:22:44;;;;;;;1.30;0.80;;;;;;;22.25;53.41;100273.66;5066439;27;97445;-82
2023/07/25 10:25:27;;;;;;;1.67;0.93;;;;;;;22.06;53.58;100288.28;5065771;27;98008;-82
2023/07/25 10:27:58;;;;;;;2.10;1.13;;;;;;;21.81;54.28;100296.09;5067845;27;97471;-82
2023/07/25 10:30:25;;;;;;;5.80;1.37;;;;;;;21.67;55.02;100288.63;5045160;27;96993;-81
2023/07/25 10:32:56;;;;;;;2.37;1.20;;;;;;;21.62;55.17;100313.47;5066081;27;97237;-82
2023/07/25 10:35:41;;;;;;;1.70;1.30;;;;;;;21.62;54.88;100307.88;5067471;27;97176;-82
2023/07/25 10:38:09;;;;;;;3.10;1.50;;;;;;;21.71;55.22;100309.25;5066460;27;97944;-82
2023/07/25 10:40:58;;;;;;;2.50;1.20;;;;;;;21.77;54.19;100312.56;5049667;27;96719;-82
2023/07/25 10:43:48;;;;;;;1.50;1.40;;;;;;;21.83;53.30;100307.47;5065700;27;97618;-83
2023/07/25 10:46:17;;;;;;;2.37;1.60;;;;;;;21.84;54.81;100294.22;5067081;27;97992;-82
2023/07/25 10:48:45;;;;;;;2.07;1.30;;;;;;;21.94;54.97;100303.41;5049854;27;97632;-82
2023/07/25 10:51:12;;;;;;;1.50;1.40;;;;;;;22.10;54.96;100308.25;5065223;27;97293;-84
2023/07/25 10:53:39;;;;;;;2.10;1.20;;;;;;;22.22;55.08;100312.00;5045885;27;99349;-82
2023/07/25 10:56:04;;;;;;;2.40;2.20;;;;;;;22.36;55.02;100313.09;5048599;27;98960;-83
2023/07/25 10:58:34;;;;;;;7.40;1.80;;;;;;;22.38;54.42;100307.66;5048923;27;96681;-82
2023/07/25 11:01:01;;;;;;;2.20;1.50;;;;;;;22.34;54.80;100318.53;5069613;27;96957;-83
2023/07/25 11:03:28;;;;;;;4.30;1.73;;;;;;;22.31;54.65;100314.09;5063682;27;99512;-82
2023/07/25 11:06:07;;;;;;;2.17;1.70;;;;;;;22.23;53.91;100312.75;5047991;27;97229;-81
2023/07/25 11:08:37;;;;;;;1.30;1.20;;;;;;;22.16;53.65;100319.19;5066361;27;96955;-82
2023/07/25 11:11:04;;;;;;;4.27;1.97;;;;;;;22.10;54.34;100311.06;5067480;27;97057;-84
2023/07/25 11:13:32;;;;;;;3.90;1.30;;;;;;;22.12;54.24;100300.00;5065515;27;100977;-82
2023/07/25 11:15:57;;;;;;;2.57;1.20;;;;;;;22.18;54.33;100310.94;5064554;27;97548;-82
2023/07/25 11:18:22;;;;;;;1.60;1.50;;;;;;;22.24;53.95;100303.75;5046696;27;96799;-83
2023/07/25 11:21:02;;;;;;;1.43;1.20;;;;;;;22.30;52.20;100312.63;5049813;27;97311;-82